createdAt,value
2018-07-07T00:01:28.005Z,58.62
2018-07-07T00:04:02.218Z,58.82
2018-07-07T00:06:35.645Z,58.57
2018-07-07T00:09:09.088Z,58.69
2018-07-07T00:11:42.468Z,59.25
2018-07-07T00:14:15.896Z,59.14
2018-07-07T00:16:49.264Z,59.24
2018-07-07T00:19:22.697Z,58.79
2018-07-07T00:21:56.063Z,58.91
2018-07-07T00:24:29.472Z,59.58
2018-07-07T00:27:02.836Z,59.57
2018-07-07T00:29:37.116Z,59.31
2018-07-07T00:32:10.599Z,59.20
2018-07-07T00:34:43.998Z,59.31
2018-07-07T00:37:17.375Z,59.16
2018-07-07T00:39:50.787Z,59.55
2018-07-07T00:42:24.162Z,59.74
2018-07-07T00:44:57.606Z,59.60
2018-07-07T00:47:31.031Z,59.79
2018-07-07T00:50:04.829Z,59.63
2018-07-07T00:52:38.206Z,59.65
2018-07-07T00:55:11.604Z,60.09
2018-07-07T00:57:45.024Z,60.52
2018-07-07T01:00:18.415Z,60.41
2018-07-07T01:02:51.767Z,59.97
2018-07-07T01:05:35.017Z,60.37
2018-07-07T01:08:08.383Z,60.50
2018-07-07T01:10:41.795Z,60.27
2018-07-07T01:13:15.703Z,60.68
2018-07-07T01:15:49.110Z,60.00
2018-07-07T01:18:22.490Z,60.50
2018-07-07T01:20:55.869Z,60.28
2018-07-07T01:23:29.222Z,60.66
2018-07-07T01:26:02.632Z,59.95
2018-07-07T01:28:36.027Z,59.80
2018-07-07T01:31:09.999Z,59.86
2018-07-07T01:33:43.394Z,59.62
2018-07-07T01:36:16.791Z,59.35
2018-07-07T01:38:50.148Z,59.46
2018-07-07T01:41:23.576Z,59.63
2018-07-07T01:43:56.972Z,60.43
2018-07-07T01:46:30.378Z,60.35
2018-07-07T01:49:03.806Z,60.14
2018-07-07T01:51:37.195Z,60.35
2018-07-07T01:54:10.621Z,60.12
2018-07-07T01:56:44.035Z,60.47
2018-07-07T01:59:17.436Z,60.79
2018-07-07T02:01:50.904Z,60.18
2018-07-07T02:04:24.349Z,60.19
2018-07-07T02:06:58.592Z,60.29
2018-07-07T02:09:32.036Z,60.25
2018-07-07T02:12:06.277Z,60.37
2018-07-07T02:14:39.655Z,60.82
2018-07-07T02:17:13.044Z,61.15
2018-07-07T02:19:46.440Z,61.10
2018-07-07T02:22:22.742Z,61.20
2018-07-07T02:24:56.131Z,60.78
2018-07-07T02:27:29.494Z,60.87
2018-07-07T02:30:02.892Z,61.10
2018-07-07T02:32:36.344Z,61.01
2018-07-07T02:35:09.737Z,60.99
2018-07-07T02:37:43.119Z,60.74
2018-07-07T02:40:16.547Z,60.96
2018-07-07T02:42:49.954Z,60.91
2018-07-07T02:45:23.461Z,61.21
2018-07-07T02:47:56.812Z,61.13
2018-07-07T02:50:30.243Z,61.23
2018-07-07T02:53:03.611Z,61.41
2018-07-07T02:55:37.006Z,61.57
2018-07-07T02:58:10.372Z,61.67
2018-07-07T03:00:43.785Z,62.01
2018-07-07T03:03:17.189Z,61.88
2018-07-07T03:05:50.655Z,61.91
2018-07-07T03:08:24.045Z,62.12
2018-07-07T03:10:57.520Z,62.91
2018-07-07T03:13:30.952Z,62.80
2018-07-07T03:16:04.358Z,62.85
2018-07-07T03:18:37.747Z,63.10
2018-07-07T03:21:11.158Z,63.09
2018-07-07T03:23:44.532Z,63.62
2018-07-07T03:26:18.160Z,63.56
2018-07-07T03:28:51.527Z,62.86
2018-07-07T03:31:24.913Z,63.33
2018-07-07T03:33:58.315Z,62.88
2018-07-07T03:36:31.743Z,62.62
2018-07-07T03:39:06.563Z,62.98
2018-07-07T03:41:39.939Z,62.75
2018-07-07T03:44:13.318Z,62.30
2018-07-07T03:46:46.734Z,62.60
2018-07-07T03:49:20.156Z,62.51
2018-07-07T03:51:53.521Z,62.39
2018-07-07T03:54:26.931Z,62.48
2018-07-07T03:57:00.392Z,62.53
2018-07-07T03:59:33.772Z,62.41
2018-07-07T04:02:08.906Z,62.49
2018-07-07T04:04:42.284Z,62.47
2018-07-07T04:07:15.756Z,62.69
2018-07-07T04:09:49.206Z,62.33
2018-07-07T04:12:22.664Z,62.00
2018-07-07T04:14:56.032Z,61.83
2018-07-07T04:17:29.436Z,61.64
2018-07-07T04:20:02.807Z,61.74
2018-07-07T04:22:36.219Z,61.25
2018-07-07T04:25:09.604Z,61.60
2018-07-07T04:27:43.023Z,61.48
2018-07-07T04:30:16.405Z,61.50
2018-07-07T04:32:49.870Z,60.91
2018-07-07T04:35:23.232Z,61.50
2018-07-07T04:37:56.634Z,60.83
2018-07-07T04:40:30.004Z,60.73
2018-07-07T04:43:03.407Z,60.46
2018-07-07T04:45:36.837Z,60.15
2018-07-07T04:48:10.280Z,59.94
2018-07-07T04:50:43.703Z,59.97
2018-07-07T04:53:17.122Z,60.32
2018-07-07T04:55:50.497Z,60.00
2018-07-07T04:58:24.791Z,60.57
2018-07-07T05:00:58.211Z,59.40
2018-07-07T05:03:31.632Z,59.35
2018-07-07T05:06:05.809Z,58.61
2018-07-07T05:08:39.218Z,58.17
2018-07-07T05:11:12.597Z,58.10
2018-07-07T05:13:46.067Z,57.88
2018-07-07T05:16:19.505Z,57.73
2018-07-07T05:18:52.899Z,56.74
2018-07-07T05:21:26.272Z,56.47
2018-07-07T05:23:59.680Z,56.38
2018-07-07T05:26:33.032Z,55.94
2018-07-07T05:29:06.420Z,54.54
2018-07-07T05:31:39.845Z,54.91
2018-07-07T05:34:13.258Z,55.18
2018-07-07T05:36:46.649Z,54.48
2018-07-07T05:39:20.037Z,54.97
2018-07-07T05:41:53.916Z,54.13
2018-07-07T05:44:27.293Z,54.44
2018-07-07T05:47:00.640Z,53.37
2018-07-07T05:49:34.034Z,52.86
2018-07-07T05:52:07.419Z,52.44
2018-07-07T05:54:40.822Z,52.44
2018-07-07T05:57:14.212Z,51.97
2018-07-07T05:59:47.634Z,52.06
2018-07-07T06:02:21.047Z,51.22
2018-07-07T06:04:54.507Z,51.48
2018-07-07T06:07:27.910Z,52.17
2018-07-07T06:10:01.322Z,50.19
2018-07-07T06:12:34.823Z,50.35
2018-07-07T06:15:08.847Z,49.71
2018-07-07T06:17:42.289Z,49.22
2018-07-07T06:20:15.648Z,49.22
2018-07-07T06:22:49.032Z,49.51
2018-07-07T06:25:22.371Z,49.21
2018-07-07T06:27:55.788Z,48.56
2018-07-07T06:30:29.150Z,48.20
2018-07-07T06:33:02.547Z,49.19
2018-07-07T06:35:35.949Z,48.26
2018-07-07T06:38:09.337Z,47.30
2018-07-07T06:40:42.690Z,46.88
2018-07-07T06:43:16.173Z,46.61
2018-07-07T06:45:49.552Z,46.73
2018-07-07T06:48:22.942Z,46.29
2018-07-07T06:50:56.361Z,45.45
2018-07-07T06:53:29.759Z,46.26
2018-07-07T06:56:03.133Z,46.59
2018-07-07T06:58:36.554Z,48.17
2018-07-07T07:01:09.915Z,45.86
2018-07-07T07:03:43.419Z,45.80
2018-07-07T07:06:16.813Z,46.19
2018-07-07T07:08:50.202Z,47.04
2018-07-07T07:11:23.562Z,45.57
2018-07-07T07:13:57.006Z,44.77
2018-07-07T07:16:30.361Z,44.20
2018-07-07T07:19:04.474Z,43.92
2018-07-07T07:21:38.108Z,43.70
2018-07-07T07:24:11.481Z,43.45
2018-07-07T07:26:44.884Z,44.51
2018-07-07T07:29:18.408Z,43.49
2018-07-07T07:31:51.779Z,42.90
2018-07-07T07:34:25.226Z,43.01
2018-07-07T07:36:58.695Z,42.05
2018-07-07T07:39:32.104Z,42.30
2018-07-07T07:42:05.514Z,40.65
2018-07-07T07:44:38.915Z,42.02
2018-07-07T07:47:12.285Z,41.97
2018-07-07T07:49:45.686Z,41.57
2018-07-07T07:52:19.034Z,41.20
2018-07-07T07:54:52.514Z,41.16
2018-07-07T07:57:25.861Z,41.68
2018-07-07T08:00:00.056Z,41.47
2018-07-07T08:02:33.495Z,40.87
2018-07-07T08:05:07.064Z,41.16
2018-07-07T08:07:40.424Z,40.92
2018-07-07T08:10:13.868Z,41.34
2018-07-07T08:12:47.269Z,41.55
2018-07-07T08:15:20.654Z,42.65
2018-07-07T08:17:54.023Z,40.75
2018-07-07T08:20:27.420Z,40.81
2018-07-07T08:23:00.999Z,40.65
2018-07-07T08:25:34.364Z,40.97
2018-07-07T08:28:07.808Z,40.34
2018-07-07T08:30:41.208Z,40.42
2018-07-07T08:33:14.632Z,39.94
2018-07-07T08:35:48.039Z,40.37
2018-07-07T08:38:21.417Z,41.09
2018-07-07T08:40:54.797Z,40.42
2018-07-07T08:43:28.147Z,40.87
2018-07-07T08:46:01.622Z,40.87
2018-07-07T08:48:35.000Z,39.66
2018-07-07T08:51:08.409Z,39.97
2018-07-07T08:53:41.781Z,39.47
2018-07-07T08:56:15.186Z,38.22
2018-07-07T08:58:48.592Z,38.56
2018-07-07T09:01:21.983Z,39.26
2018-07-07T09:03:55.370Z,39.19
2018-07-07T09:06:28.780Z,39.74
2018-07-07T09:09:02.163Z,38.63
2018-07-07T09:11:35.578Z,39.58
2018-07-07T09:14:09.005Z,38.95
2018-07-07T09:16:42.468Z,39.49
2018-07-07T09:19:15.833Z,38.98
2018-07-07T09:21:49.248Z,39.67
2018-07-07T09:24:22.665Z,38.21
2018-07-07T09:26:56.120Z,38.38
2018-07-07T09:29:29.501Z,39.30
2018-07-07T09:32:02.937Z,37.45
2018-07-07T09:34:36.314Z,37.56
2018-07-07T09:37:09.704Z,39.71
2018-07-07T09:39:43.105Z,37.48
2018-07-07T09:42:16.542Z,36.67
2018-07-07T09:44:49.975Z,36.38
2018-07-07T09:47:23.341Z,36.97
2018-07-07T09:49:56.723Z,36.11
2018-07-07T09:52:30.095Z,35.68
2018-07-07T09:55:03.507Z,36.62
2018-07-07T09:57:36.993Z,35.97
2018-07-07T10:00:16.599Z,35.16
2018-07-07T10:02:50.008Z,36.13
2018-07-07T10:05:25.340Z,35.09
2018-07-07T10:07:58.714Z,34.28
2018-07-07T10:10:32.131Z,32.04
2018-07-07T10:13:06.361Z,32.81
2018-07-07T10:15:39.738Z,33.50
2018-07-07T10:18:13.112Z,34.21
2018-07-07T10:20:46.632Z,35.77
2018-07-07T10:23:19.954Z,34.77
2018-07-07T10:25:53.331Z,34.91
2018-07-07T10:28:26.799Z,33.56
2018-07-07T10:31:00.259Z,33.50
2018-07-07T10:33:33.679Z,33.80
2018-07-07T10:36:08.193Z,33.59
2018-07-07T10:38:41.584Z,33.62
2018-07-07T10:41:15.048Z,33.66
2018-07-07T10:43:48.431Z,34.52
2018-07-07T10:46:21.951Z,33.83
2018-07-07T10:48:55.379Z,32.77
2018-07-07T10:51:28.759Z,33.11
2018-07-07T10:54:02.154Z,33.12
2018-07-07T10:56:35.592Z,33.29
2018-07-07T10:59:08.976Z,33.84
2018-07-07T11:01:42.406Z,32.82
2018-07-07T11:04:16.047Z,33.07
2018-07-07T11:06:49.793Z,32.96
2018-07-07T11:09:23.265Z,33.54
2018-07-07T11:11:56.781Z,33.45
2018-07-07T11:14:30.187Z,33.81
2018-07-07T11:17:03.663Z,33.68
2018-07-07T11:19:37.023Z,33.36
2018-07-07T11:22:10.609Z,33.31
2018-07-07T11:24:44.128Z,31.99
2018-07-07T11:27:17.559Z,31.36
2018-07-07T11:29:50.980Z,31.10
2018-07-07T11:32:24.346Z,30.29
2018-07-07T11:34:57.703Z,30.83
2018-07-07T11:37:31.101Z,30.27
2018-07-07T11:40:04.878Z,30.37
2018-07-07T11:42:38.316Z,30.75
2018-07-07T11:45:11.707Z,31.26
2018-07-07T11:47:45.142Z,31.15
2018-07-07T11:50:18.687Z,30.99
2018-07-07T11:52:51.994Z,30.46
2018-07-07T11:55:25.496Z,29.64
2018-07-07T11:57:58.893Z,30.80
2018-07-07T12:00:32.349Z,30.44
2018-07-07T12:03:05.914Z,31.06
2018-07-07T12:05:39.285Z,30.75
2018-07-07T12:08:13.992Z,30.93
2018-07-07T12:10:46.259Z,30.41
2018-07-07T12:13:19.671Z,30.15
2018-07-07T12:15:53.589Z,30.41
2018-07-07T12:18:26.991Z,30.99
2018-07-07T12:21:00.386Z,31.82
2018-07-07T12:23:33.755Z,31.09
2018-07-07T12:26:07.148Z,31.26
2018-07-07T12:28:40.582Z,30.80
2018-07-07T12:31:13.968Z,30.94
2018-07-07T12:33:47.380Z,31.98
2018-07-07T12:36:20.827Z,31.77
2018-07-07T12:38:54.461Z,30.48
2018-07-07T12:41:27.837Z,30.36
2018-07-07T12:44:01.321Z,31.66
2018-07-07T12:46:34.772Z,31.68
2018-07-07T12:49:08.610Z,30.76
2018-07-07T12:51:42.322Z,30.43
2018-07-07T12:54:16.145Z,30.79
2018-07-07T12:56:49.644Z,30.40
2018-07-07T12:59:23.893Z,30.91
2018-07-07T13:01:58.420Z,31.36
2018-07-07T13:04:31.840Z,31.19
2018-07-07T13:07:05.741Z,30.79
2018-07-07T13:09:39.106Z,30.83
2018-07-07T13:12:12.506Z,30.65
2018-07-07T13:14:45.934Z,29.72
2018-07-07T13:17:19.395Z,29.90
2018-07-07T13:19:53.348Z,29.64
2018-07-07T13:22:26.852Z,29.56
2018-07-07T13:25:00.304Z,30.66
2018-07-07T13:27:34.033Z,29.71
2018-07-07T13:30:08.178Z,30.25
2018-07-07T13:32:41.596Z,29.85
2018-07-07T13:35:15.029Z,30.20
2018-07-07T13:37:48.456Z,30.27
2018-07-07T13:40:21.938Z,30.02
2018-07-07T13:43:00.606Z,29.97
2018-07-07T13:45:34.079Z,29.23
2018-07-07T13:48:07.486Z,28.11
2018-07-07T13:50:40.904Z,28.38
2018-07-07T13:53:16.459Z,29.05
2018-07-07T13:55:49.904Z,29.35
2018-07-07T13:58:23.387Z,29.72
2018-07-07T14:00:57.597Z,29.73
2018-07-07T14:03:31.022Z,30.11
2018-07-07T14:06:04.896Z,30.30
2018-07-07T14:08:38.346Z,29.91
2018-07-07T14:11:11.918Z,30.52
2018-07-07T14:13:45.356Z,30.02
2018-07-07T14:16:19.128Z,30.05
2018-07-07T14:18:52.848Z,29.71
2018-07-07T14:21:26.450Z,29.75
2018-07-07T14:23:59.981Z,30.31
2018-07-07T14:26:33.496Z,29.83
2018-07-07T14:29:06.947Z,29.37
2018-07-07T14:31:40.365Z,30.02
2018-07-07T14:34:13.783Z,29.89
2018-07-07T14:36:47.211Z,29.27
2018-07-07T14:39:20.603Z,31.32
2018-07-07T14:42:02.815Z,29.84
2018-07-07T14:44:36.334Z,30.53
2018-07-07T14:47:09.712Z,29.62
2018-07-07T14:49:43.456Z,29.16
2018-07-07T14:52:16.842Z,29.90
2018-07-07T14:54:50.297Z,30.30
2018-07-07T14:57:23.709Z,30.75
2018-07-07T14:59:57.139Z,29.79
2018-07-07T15:02:30.583Z,29.72
2018-07-07T15:05:04.749Z,29.85
2018-07-07T15:07:38.130Z,30.31
2018-07-07T15:10:12.464Z,30.44
2018-07-07T15:12:46.871Z,30.86
2018-07-07T15:15:20.290Z,30.86
2018-07-07T15:17:53.688Z,29.79
2018-07-07T15:20:27.121Z,30.42
2018-07-07T15:23:00.546Z,30.31
2018-07-07T15:25:33.986Z,29.66
2018-07-07T15:28:07.379Z,29.40
2018-07-07T15:30:40.916Z,29.61
2018-07-07T15:33:14.278Z,29.63
2018-07-07T15:35:47.959Z,30.47
2018-07-07T15:38:21.376Z,29.99
2018-07-07T15:40:54.753Z,29.88
2018-07-07T15:43:28.134Z,30.38
2018-07-07T15:46:01.594Z,30.19
2018-07-07T15:48:35.092Z,30.51
2018-07-07T15:51:08.500Z,29.60
2018-07-07T15:53:41.875Z,29.99
2018-07-07T15:56:15.294Z,30.20
2018-07-07T15:58:48.735Z,30.11
2018-07-07T16:01:31.966Z,30.17
2018-07-07T16:04:05.448Z,30.17
2018-07-07T16:06:38.843Z,30.68
2018-07-07T16:09:12.230Z,31.20
2018-07-07T16:11:45.962Z,30.78
2018-07-07T16:14:19.460Z,31.02
2018-07-07T16:16:52.831Z,31.72
2018-07-07T16:19:26.325Z,32.27
2018-07-07T16:21:59.798Z,31.40
2018-07-07T16:24:33.254Z,31.44
2018-07-07T16:27:07.009Z,31.22
2018-07-07T16:29:40.391Z,30.71
2018-07-07T16:32:13.789Z,30.99
2018-07-07T16:34:47.291Z,31.32
2018-07-07T16:37:20.695Z,30.88
2018-07-07T16:39:54.175Z,30.79
2018-07-07T16:42:27.571Z,30.71
2018-07-07T16:45:01.096Z,31.37
2018-07-07T16:47:35.123Z,31.17
2018-07-07T16:50:08.538Z,30.90
2018-07-07T16:52:41.968Z,31.43
2018-07-07T16:55:15.456Z,32.54
2018-07-07T16:57:48.953Z,32.10
2018-07-07T17:00:22.443Z,32.37
2018-07-07T17:02:56.047Z,32.63
2018-07-07T17:05:29.568Z,31.84
2018-07-07T17:08:03.095Z,31.85
2018-07-07T17:10:36.528Z,32.16
2018-07-07T17:13:09.996Z,32.12
2018-07-07T17:15:43.471Z,32.13
2018-07-07T17:18:16.916Z,31.66
2018-07-07T17:20:50.383Z,31.09
2018-07-07T17:23:46.277Z,31.50
2018-07-07T17:26:36.550Z,31.89
2018-07-07T17:32:17.047Z,32.56
2018-07-07T17:35:02.144Z,32.13
2018-07-07T17:37:36.015Z,33.07
2018-07-07T17:40:09.463Z,33.72
2018-07-07T17:42:43.052Z,34.34
2018-07-07T17:45:16.947Z,33.23
2018-07-07T17:47:51.569Z,33.84
2018-07-07T17:50:25.531Z,33.49
2018-07-07T17:52:59.940Z,34.30
2018-07-07T17:55:34.234Z,34.75
2018-07-07T17:58:08.395Z,34.75
2018-07-07T18:00:44.528Z,35.36
2018-07-07T18:03:19.067Z,35.29
2018-07-07T18:05:53.646Z,35.71
2018-07-07T18:08:38.400Z,35.58
2018-07-07T18:11:12.614Z,36.24
2018-07-07T18:13:46.947Z,36.17
2018-07-07T18:16:23.418Z,37.73
2018-07-07T18:18:57.475Z,36.69
2018-07-07T18:21:31.628Z,37.38
2018-07-07T18:24:05.820Z,37.26
2018-07-07T18:26:41.921Z,37.84
2018-07-07T18:29:18.575Z,37.84
2018-07-07T18:32:01.122Z,38.43
2018-07-07T18:34:42.699Z,38.61
2018-07-07T18:37:21.764Z,38.35
2018-07-07T18:39:55.248Z,38.66
2018-07-07T18:42:28.690Z,38.82
2018-07-07T18:45:02.109Z,39.22
2018-07-07T18:47:35.520Z,39.10
2018-07-07T18:50:08.935Z,39.70
2018-07-07T18:52:42.359Z,39.16
2018-07-07T18:55:15.777Z,39.44
2018-07-07T18:57:49.184Z,39.88
2018-07-07T19:00:22.549Z,40.07
2018-07-07T19:02:55.946Z,39.83
2018-07-07T19:05:29.320Z,40.14
2018-07-07T19:08:02.719Z,40.36
2018-07-07T19:10:36.111Z,40.54
2018-07-07T19:13:09.538Z,41.15
2018-07-07T19:15:46.145Z,40.88
2018-07-07T19:18:19.578Z,40.64
2018-07-07T19:20:58.477Z,41.08
2018-07-07T19:23:37.050Z,40.89
2018-07-07T19:26:15.712Z,41.08
2018-07-07T19:28:49.140Z,41.64
2018-07-07T19:31:22.537Z,41.63
2018-07-07T19:34:01.339Z,41.83
2018-07-07T19:37:39.955Z,41.67
2018-07-07T19:40:13.407Z,42.05
2018-07-07T19:42:49.206Z,42.85
2018-07-07T19:45:22.580Z,42.65
2018-07-07T19:47:55.974Z,43.20
2018-07-07T19:50:29.368Z,43.23
2018-07-07T19:53:02.778Z,42.71
2018-07-07T19:55:36.149Z,43.20
2018-07-07T19:58:09.548Z,42.85
2018-07-07T20:00:42.938Z,44.52
2018-07-07T20:03:16.357Z,43.97
2018-07-07T20:05:49.739Z,44.03
2018-07-07T20:08:23.186Z,44.39
2018-07-07T20:10:57.437Z,44.47
2018-07-07T20:13:30.968Z,44.66
2018-07-07T20:16:13.663Z,44.34
2018-07-07T20:19:16.318Z,44.87
2018-07-07T20:21:51.974Z,44.70
2018-07-07T20:24:38.749Z,44.07
2018-07-07T20:27:17.402Z,44.51
2018-07-07T20:29:50.855Z,45.15
2018-07-07T20:32:29.465Z,45.49
2018-07-07T20:35:02.937Z,45.49
2018-07-07T20:37:36.342Z,46.00
2018-07-07T20:40:09.787Z,46.19
2018-07-07T20:42:43.214Z,46.98
2018-07-07T20:45:16.627Z,46.62
2018-07-07T20:47:50.113Z,47.08
2018-07-07T20:50:23.719Z,47.08
2018-07-07T20:52:57.095Z,46.72
2018-07-07T20:55:30.570Z,47.45
2018-07-07T20:58:03.993Z,47.38
2018-07-07T21:00:37.387Z,47.84
2018-07-07T21:03:11.312Z,47.73
2018-07-07T21:05:45.392Z,48.15
2018-07-07T21:08:19.044Z,48.26
2018-07-07T21:10:52.834Z,48.40
2018-07-07T21:13:27.784Z,48.02
2018-07-07T21:16:01.587Z,48.51
2018-07-07T21:18:34.963Z,48.10
2018-07-07T21:21:08.369Z,48.35
2018-07-07T21:23:41.855Z,49.08
2018-07-07T21:26:17.992Z,48.74
2018-07-07T21:28:51.525Z,49.10
2018-07-07T21:31:25.631Z,49.22
2018-07-07T21:33:59.064Z,48.91
2018-07-07T21:36:32.461Z,49.60
2018-07-07T21:39:06.735Z,49.88
2018-07-07T21:41:40.154Z,50.40
2018-07-07T21:44:13.555Z,50.23
2018-07-07T21:46:47.059Z,50.19
2018-07-07T21:49:20.500Z,50.80
2018-07-07T21:51:53.911Z,50.75
2018-07-07T21:54:27.325Z,50.83
2018-07-07T21:57:00.746Z,51.03
2018-07-07T21:59:34.174Z,51.48
2018-07-07T22:02:12.806Z,51.13
2018-07-07T22:04:51.526Z,50.97
2018-07-07T22:07:30.169Z,50.67
2018-07-07T22:10:03.611Z,51.57
2018-07-07T22:12:37.135Z,52.34
2018-07-07T22:15:10.638Z,51.74
2018-07-07T22:17:44.046Z,52.34
2018-07-07T22:20:27.504Z,52.22
2018-07-07T22:23:00.904Z,51.94
2018-07-07T22:25:34.332Z,52.30
2018-07-07T22:28:07.805Z,52.27
2018-07-07T22:30:41.240Z,52.48
2018-07-07T22:33:20.355Z,52.89
2018-07-07T22:35:59.201Z,52.47
2018-07-07T22:38:38.017Z,53.46
2018-07-07T22:41:11.465Z,53.17
2018-07-07T22:43:44.855Z,53.16
2018-07-07T22:46:18.300Z,53.36
2018-07-07T22:48:52.085Z,53.19
2018-07-07T22:51:25.491Z,53.36
2018-07-07T22:53:58.880Z,53.73
2018-07-07T22:56:33.142Z,53.68
2018-07-07T22:59:06.535Z,53.41
2018-07-07T23:01:39.984Z,53.92
2018-07-07T23:04:13.381Z,54.40
2018-07-07T23:06:47.251Z,54.50
2018-07-07T23:09:20.679Z,54.89
2018-07-07T23:11:54.942Z,54.32
2018-07-07T23:14:28.404Z,54.17
2018-07-07T23:17:02.763Z,54.85
2018-07-07T23:19:36.250Z,55.07
2018-07-07T23:22:09.661Z,55.04
2018-07-07T23:24:43.185Z,55.13
2018-07-07T23:27:16.622Z,55.66
2018-07-07T23:29:50.051Z,55.15
2018-07-07T23:32:23.535Z,55.52
2018-07-07T23:34:56.935Z,55.77
2018-07-07T23:37:36.849Z,55.48
2018-07-07T23:40:10.683Z,55.78
2018-07-07T23:42:44.131Z,55.72
2018-07-07T23:45:17.528Z,55.87
2018-07-07T23:47:50.959Z,56.46
2018-07-07T23:50:24.370Z,56.16
2018-07-07T23:52:57.827Z,56.48
2018-07-07T23:55:31.204Z,56.36
2018-07-07T23:58:04.645Z,56.72
